sensor_id;sensor_type;location;lat;lon;timestamp;temperature;humidity
18880;DHT22;9572;52.378;13.404;2023-01-25T00:00:03;1.90;99.90
18880;DHT22;9572;52.378;13.404;2023-01-25T00:02:31;2.00;99.90
18880;DHT22;9572;52.378;13.404;2023-01-25T00:04:58;1.90;99.90
18880;DHT22;9572;52.378;13.404;2023-01-25T00:07:25;1.90;99.90
18880;DHT22;9572;52.378;13.404;2023-01-25T00:09:51;2.00;99.90
18880;DHT22;9572;52.378;13.404;2023-01-25T00:12:18;2.00;99.90
18880;DHT22;9572;52.378;13.404;2023-01-25T00:14:45;2.10;99.90
18880;DHT22;9572;52.378;13.404;2023-01-25T00:17:13;2.10;99.90
18880;DHT22;9572;52.378;13.404;2023-01-25T00:19:40;2.00;99.90
18880;DHT22;9572;52.378;13.404;2023-01-25T00:22:07;2.00;99.90
18880;DHT22;9572;52.378;13.404;2023-01-25T00:24:34;2.00;99.90
18880;DHT22;9572;52.378;13.404;2023-01-25T00:27:01;2.10;99.90
18880;DHT22;9572;52.378;13.404;2023-01-25T00:29:28;2.10;99.90
18880;DHT22;9572;52.378;13.404;2023-01-25T00:32:06;2.10;99.90
18880;DHT22;9572;52.378;13.404;2023-01-25T00:34:43;2.10;99.90
18880;DHT22;9572;52.378;13.404;2023-01-25T00:37:19;2.20;99.90
18880;DHT22;9572;52.378;13.404;2023-01-25T00:39:47;2.20;99.90
18880;DHT22;9572;52.378;13.404;2023-01-25T00:42:14;2.20;99.90
18880;DHT22;9572;52.378;13.404;2023-01-25T00:44:42;2.20;99.90
18880;DHT22;9572;52.378;13.404;2023-01-25T00:47:09;2.40;99.90
18880;DHT22;9572;52.378;13.404;2023-01-25T00:49:40;2.30;99.90
18880;DHT22;9572;52.378;13.404;2023-01-25T00:52:08;2.30;99.90
18880;DHT22;9572;52.378;13.404;2023-01-25T00:54:35;2.30;99.90
18880;DHT22;9572;52.378;13.404;2023-01-25T00:57:03;2.40;99.90
18880;DHT22;9572;52.378;13.404;2023-01-25T00:59:30;2.40;99.90
18880;DHT22;9572;52.378;13.404;2023-01-25T01:01:57;2.40;99.90
18880;DHT22;9572;52.378;13.404;2023-01-25T01:04:24;2.40;99.90
18880;DHT22;9572;52.378;13.404;2023-01-25T01:06:53;2.50;99.90
18880;DHT22;9572;52.378;13.404;2023-01-25T01:09:21;2.50;99.90
18880;DHT22;9572;52.378;13.404;2023-01-25T01:11:48;2.50;99.90
18880;DHT22;9572;52.378;13.404;2023-01-25T01:14:15;2.30;99.90
18880;DHT22;9572;52.378;13.404;2023-01-25T01:16:42;2.30;99.90
18880;DHT22;9572;52.378;13.404;2023-01-25T01:19:09;2.30;99.90
18880;DHT22;9572;52.378;13.404;2023-01-25T01:21:36;2.30;99.90
18880;DHT22;9572;52.378;13.404;2023-01-25T01:24:05;2.40;99.90
18880;DHT22;9572;52.378;13.404;2023-01-25T01:26:32;2.40;99.90
18880;DHT22;9572;52.378;13.404;2023-01-25T01:28:59;2.40;99.90
18880;DHT22;9572;52.378;13.404;2023-01-25T01:31:26;2.30;99.90
18880;DHT22;9572;52.378;13.404;2023-01-25T01:33:54;2.10;99.90
18880;DHT22;9572;52.378;13.404;2023-01-25T01:36:24;2.30;99.90
18880;DHT22;9572;52.378;13.404;2023-01-25T01:38:51;2.30;99.90
18880;DHT22;9572;52.378;13.404;2023-01-25T01:41:20;2.30;99.90
18880;DHT22;9572;52.378;13.404;2023-01-25T01:43:47;2.30;99.90
18880;DHT22;9572;52.378;13.404;2023-01-25T01:46:16;2.30;99.90
18880;DHT22;9572;52.378;13.404;2023-01-25T01:48:48;2.30;99.90
18880;DHT22;9572;52.378;13.404;2023-01-25T01:51:20;2.30;99.90
18880;DHT22;9572;52.378;13.404;2023-01-25T01:53:51;2.30;99.90
18880;DHT22;9572;52.378;13.404;2023-01-25T01:56:26;2.20;99.90
18880;DHT22;9572;52.378;13.404;2023-01-25T01:58:55;2.20;99.90
18880;DHT22;9572;52.378;13.404;2023-01-25T02:01:24;2.20;99.90
18880;DHT22;9572;52.378;13.404;2023-01-25T02:03:51;2.30;99.90
18880;DHT22;9572;52.378;13.404;2023-01-25T02:06:26;2.30;99.90
18880;DHT22;9572;52.378;13.404;2023-01-25T02:08:54;2.30;99.90
18880;DHT22;9572;52.378;13.404;2023-01-25T02:11:24;2.30;99.90
18880;DHT22;9572;52.378;13.404;2023-01-25T02:13:53;2.20;99.90
18880;DHT22;9572;52.378;13.404;2023-01-25T02:16:24;2.10;99.90
18880;DHT22;9572;52.378;13.404;2023-01-25T02:18:54;2.10;99.90
18880;DHT22;9572;52.378;13.404;2023-01-25T02:21:23;2.20;99.90
18880;DHT22;9572;52.378;13.404;2023-01-25T02:23:53;2.30;99.90
18880;DHT22;9572;52.378;13.404;2023-01-25T02:26:23;2.30;99.90
18880;DHT22;9572;52.378;13.404;2023-01-25T02:28:54;2.40;99.90
18880;DHT22;9572;52.378;13.404;2023-01-25T02:31:22;2.40;99.90
18880;DHT22;9572;52.378;13.404;2023-01-25T02:33:49;2.40;99.90
18880;DHT22;9572;52.378;13.404;2023-01-25T02:36:20;2.40;99.90
18880;DHT22;9572;52.378;13.404;2023-01-25T02:38:51;2.30;99.90
18880;DHT22;9572;52.378;13.404;2023-01-25T02:41:25;2.40;99.90
18880;DHT22;9572;52.378;13.404;2023-01-25T02:43:53;2.30;99.90
18880;DHT22;9572;52.378;13.404;2023-01-25T02:46:22;2.30;99.90
18880;DHT22;9572;52.378;13.404;2023-01-25T02:48:52;2.40;99.90
18880;DHT22;9572;52.378;13.404;2023-01-25T02:51:19;2.40;99.90
18880;DHT22;9572;52.378;13.404;2023-01-25T02:53:47;2.40;99.90
18880;DHT22;9572;52.378;13.404;2023-01-25T02:56:14;2.30;99.90
18880;DHT22;9572;52.378;13.404;2023-01-25T02:58:42;2.30;99.90
18880;DHT22;9572;52.378;13.404;2023-01-25T03:01:10;2.40;99.90
18880;DHT22;9572;52.378;13.404;2023-01-25T03:03:38;2.40;99.90
18880;DHT22;9572;52.378;13.404;2023-01-25T03:06:05;2.40;99.90
18880;DHT22;9572;52.378;13.404;2023-01-25T03:08:32;2.40;99.90
18880;DHT22;9572;52.378;13.404;2023-01-25T03:11:00;2.40;99.90
18880;DHT22;9572;52.378;13.404;2023-01-25T03:13:28;2.30;99.90
18880;DHT22;9572;52.378;13.404;2023-01-25T03:16:00;2.40;99.90
18880;DHT22;9572;52.378;13.404;2023-01-25T03:18:27;2.30;99.90
18880;DHT22;9572;52.378;13.404;2023-01-25T03:20:54;2.40;99.90
18880;DHT22;9572;52.378;13.404;2023-01-25T03:23:21;2.50;99.90
18880;DHT22;9572;52.378;13.404;2023-01-25T03:25:48;2.50;99.90
18880;DHT22;9572;52.378;13.404;2023-01-25T03:28:15;2.50;99.90
18880;DHT22;9572;52.378;13.404;2023-01-25T03:30:42;2.40;99.90
18880;DHT22;9572;52.378;13.404;2023-01-25T03:33:10;2.40;99.90
18880;DHT22;9572;52.378;13.404;2023-01-25T03:35:37;2.40;99.90
18880;DHT22;9572;52.378;13.404;2023-01-25T03:38:04;2.30;99.90
18880;DHT22;9572;52.378;13.404;2023-01-25T03:40:31;2.30;99.90
18880;DHT22;9572;52.378;13.404;2023-01-25T03:42:58;2.40;99.90
18880;DHT22;9572;52.378;13.404;2023-01-25T03:45:24;2.30;99.90
18880;DHT22;9572;52.378;13.404;2023-01-25T03:47:51;2.40;99.90
18880;DHT22;9572;52.378;13.404;2023-01-25T03:50:20;2.40;99.90
18880;DHT22;9572;52.378;13.404;2023-01-25T03:52:46;2.40;99.90
18880;DHT22;9572;52.378;13.404;2023-01-25T03:55:21;2.40;99.90
18880;DHT22;9572;52.378;13.404;2023-01-25T03:57:48;2.50;99.90
18880;DHT22;9572;52.378;13.404;2023-01-25T04:00:16;2.50;99.90
18880;DHT22;9572;52.378;13.404;2023-01-25T04:02:44;2.40;99.90
18880;DHT22;9572;52.378;13.404;2023-01-25T04:05:11;2.40;99.90
18880;DHT22;9572;52.378;13.404;2023-01-25T04:07:39;2.30;99.90
18880;DHT22;9572;52.378;13.404;2023-01-25T04:10:07;2.30;99.90
18880;DHT22;9572;52.378;13.404;2023-01-25T04:12:34;2.30;99.90
18880;DHT22;9572;52.378;13.404;2023-01-25T04:15:01;2.40;99.90
18880;DHT22;9572;52.378;13.404;2023-01-25T04:17:28;2.40;99.90
18880;DHT22;9572;52.378;13.404;2023-01-25T04:19:55;2.40;99.90
18880;DHT22;9572;52.378;13.404;2023-01-25T04:22:22;2.40;99.90
18880;DHT22;9572;52.378;13.404;2023-01-25T04:24:50;2.40;99.90
18880;DHT22;9572;52.378;13.404;2023-01-25T04:27:17;2.40;99.90
18880;DHT22;9572;52.378;13.404;2023-01-25T04:29:44;2.30;99.90
18880;DHT22;9572;52.378;13.404;2023-01-25T04:32:11;2.30;99.90
18880;DHT22;9572;52.378;13.404;2023-01-25T04:34:37;2.40;99.90
18880;DHT22;9572;52.378;13.404;2023-01-25T04:37:04;2.50;99.90
18880;DHT22;9572;52.378;13.404;2023-01-25T04:39:31;2.50;99.90
18880;DHT22;9572;52.378;13.404;2023-01-25T04:41:59;2.50;99.90
18880;DHT22;9572;52.378;13.404;2023-01-25T04:44:26;2.50;99.90
18880;DHT22;9572;52.378;13.404;2023-01-25T04:46:53;2.40;99.90
18880;DHT22;9572;52.378;13.404;2023-01-25T04:49:20;2.40;99.90
18880;DHT22;9572;52.378;13.404;2023-01-25T04:51:47;2.40;99.90
18880;DHT22;9572;52.378;13.404;2023-01-25T04:54:14;2.40;99.90
18880;DHT22;9572;52.378;13.404;2023-01-25T04:56:40;2.60;99.90
18880;DHT22;9572;52.378;13.404;2023-01-25T04:59:09;2.50;99.90
18880;DHT22;9572;52.378;13.404;2023-01-25T05:01:36;2.40;99.90
18880;DHT22;9572;52.378;13.404;2023-01-25T05:04:03;2.40;99.90
18880;DHT22;9572;52.378;13.404;2023-01-25T05:06:30;2.40;99.90
18880;DHT22;9572;52.378;13.404;2023-01-25T05:08:57;2.50;99.90
18880;DHT22;9572;52.378;13.404;2023-01-25T05:11:24;2.50;99.90
18880;DHT22;9572;52.378;13.404;2023-01-25T05:13:51;2.50;99.90
18880;DHT22;9572;52.378;13.404;2023-01-25T05:16:20;2.40;99.90
18880;DHT22;9572;52.378;13.404;2023-01-25T05:18:47;2.40;99.90
18880;DHT22;9572;52.378;13.404;2023-01-25T05:21:14;2.50;99.90
18880;DHT22;9572;52.378;13.404;2023-01-25T05:23:55;2.50;99.90
18880;DHT22;9572;52.378;13.404;2023-01-25T05:26:21;2.40;99.90
18880;DHT22;9572;52.378;13.404;2023-01-25T05:29:07;2.30;99.90
18880;DHT22;9572;52.378;13.404;2023-01-25T05:31:35;2.30;99.90
18880;DHT22;9572;52.378;13.404;2023-01-25T05:34:02;2.30;99.90
18880;DHT22;9572;52.378;13.404;2023-01-25T05:36:29;2.50;99.90
18880;DHT22;9572;52.378;13.404;2023-01-25T05:38:56;2.50;99.90
18880;DHT22;9572;52.378;13.404;2023-01-25T05:41:23;2.40;99.90
18880;DHT22;9572;52.378;13.404;2023-01-25T05:43:50;2.30;99.90
18880;DHT22;9572;52.378;13.404;2023-01-25T05:46:17;2.30;99.90
18880;DHT22;9572;52.378;13.404;2023-01-25T05:48:46;2.30;99.90
18880;DHT22;9572;52.378;13.404;2023-01-25T05:51:13;2.30;99.90
18880;DHT22;9572;52.378;13.404;2023-01-25T05:53:40;2.30;99.90
18880;DHT22;9572;52.378;13.404;2023-01-25T05:56:08;2.40;99.90
18880;DHT22;9572;52.378;13.404;2023-01-25T05:58:35;2.30;99.90
18880;DHT22;9572;52.378;13.404;2023-01-25T06:01:03;2.30;99.90
18880;DHT22;9572;52.378;13.404;2023-01-25T06:03:31;2.30;99.90
18880;DHT22;9572;52.378;13.404;2023-01-25T06:06:00;2.30;99.90
18880;DHT22;9572;52.378;13.404;2023-01-25T06:08:28;2.40;99.90
18880;DHT22;9572;52.378;13.404;2023-01-25T06:10:55;2.40;99.90
18880;DHT22;9572;52.378;13.404;2023-01-25T06:13:23;2.50;99.90
18880;DHT22;9572;52.378;13.404;2023-01-25T06:15:53;2.50;99.90
18880;DHT22;9572;52.378;13.404;2023-01-25T06:18:21;2.60;99.90
18880;DHT22;9572;52.378;13.404;2023-01-25T06:20:49;2.60;99.90
18880;DHT22;9572;52.378;13.404;2023-01-25T06:23:17;2.50;99.90
18880;DHT22;9572;52.378;13.404;2023-01-25T06:25:44;2.40;99.90
18880;DHT22;9572;52.378;13.404;2023-01-25T06:28:11;2.50;99.90
18880;DHT22;9572;52.378;13.404;2023-01-25T06:30:38;2.40;99.90
18880;DHT22;9572;52.378;13.404;2023-01-25T06:33:04;2.20;99.90
18880;DHT22;9572;52.378;13.404;2023-01-25T06:35:32;2.30;99.90
18880;DHT22;9572;52.378;13.404;2023-01-25T06:38:00;2.40;99.90
18880;DHT22;9572;52.378;13.404;2023-01-25T06:40:28;2.40;99.90
18880;DHT22;9572;52.378;13.404;2023-01-25T06:42:55;2.40;99.90
18880;DHT22;9572;52.378;13.404;2023-01-25T06:45:31;2.50;99.90
18880;DHT22;9572;52.378;13.404;2023-01-25T06:47:58;2.50;99.90
18880;DHT22;9572;52.378;13.404;2023-01-25T06:50:24;2.50;99.90
18880;DHT22;9572;52.378;13.404;2023-01-25T06:52:51;2.70;99.90
18880;DHT22;9572;52.378;13.404;2023-01-25T06:55:19;2.70;99.90
18880;DHT22;9572;52.378;13.404;2023-01-25T06:57:48;2.60;99.90
18880;DHT22;9572;52.378;13.404;2023-01-25T07:00:16;2.50;99.90
18880;DHT22;9572;52.378;13.404;2023-01-25T07:02:43;2.50;99.90
18880;DHT22;9572;52.378;13.404;2023-01-25T07:05:09;2.60;99.90
18880;DHT22;9572;52.378;13.404;2023-01-25T07:07:36;2.60;99.90
18880;DHT22;9572;52.378;13.404;2023-01-25T07:10:04;2.60;99.90
18880;DHT22;9572;52.378;13.404;2023-01-25T07:12:31;2.50;99.90
18880;DHT22;9572;52.378;13.404;2023-01-25T07:14:59;2.50;99.90
18880;DHT22;9572;52.378;13.404;2023-01-25T07:17:26;2.60;99.90
18880;DHT22;9572;52.378;13.404;2023-01-25T07:19:53;2.60;99.90
18880;DHT22;9572;52.378;13.404;2023-01-25T07:22:19;2.60;99.90
18880;DHT22;9572;52.378;13.404;2023-01-25T07:24:46;2.60;99.90
18880;DHT22;9572;52.378;13.404;2023-01-25T07:27:17;2.40;99.90
18880;DHT22;9572;52.378;13.404;2023-01-25T07:29:43;2.50;99.90
18880;DHT22;9572;52.378;13.404;2023-01-25T07:32:12;2.50;99.90
18880;DHT22;9572;52.378;13.404;2023-01-25T07:34:39;2.40;99.90
18880;DHT22;9572;52.378;13.404;2023-01-25T07:37:06;2.30;99.90
18880;DHT22;9572;52.378;13.404;2023-01-25T07:39:34;2.30;99.90
18880;DHT22;9572;52.378;13.404;2023-01-25T07:42:01;2.40;99.90
18880;DHT22;9572;52.378;13.404;2023-01-25T07:44:28;2.50;99.90
18880;DHT22;9572;52.378;13.404;2023-01-25T07:46:55;2.40;99.90
18880;DHT22;9572;52.378;13.404;2023-01-25T07:49:23;2.40;99.90
18880;DHT22;9572;52.378;13.404;2023-01-25T07:51:50;2.40;99.90
18880;DHT22;9572;52.378;13.404;2023-01-25T07:54:17;2.30;99.90
18880;DHT22;9572;52.378;13.404;2023-01-25T07:56:44;2.30;99.90
18880;DHT22;9572;52.378;13.404;2023-01-25T07:59:11;2.20;99.90
18880;DHT22;9572;52.378;13.404;2023-01-25T08:01:39;2.30;99.90
18880;DHT22;9572;52.378;13.404;2023-01-25T08:04:06;2.50;99.90
18880;DHT22;9572;52.378;13.404;2023-01-25T08:06:35;2.50;99.90
18880;DHT22;9572;52.378;13.404;2023-01-25T08:09:06;2.40;99.90
18880;DHT22;9572;52.378;13.404;2023-01-25T08:11:33;2.30;99.90
18880;DHT22;9572;52.378;13.404;2023-01-25T08:14:00;2.30;99.90
18880;DHT22;9572;52.378;13.404;2023-01-25T08:16:28;2.40;99.90
18880;DHT22;9572;52.378;13.404;2023-01-25T08:18:57;2.40;99.90
18880;DHT22;9572;52.378;13.404;2023-01-25T08:21:26;2.40;99.90
18880;DHT22;9572;52.378;13.404;2023-01-25T08:23:56;2.30;99.90
18880;DHT22;9572;52.378;13.404;2023-01-25T08:26:24;2.30;99.90
18880;DHT22;9572;52.378;13.404;2023-01-25T08:28:52;2.20;99.90
18880;DHT22;9572;52.378;13.404;2023-01-25T08:31:20;2.20;99.90
18880;DHT22;9572;52.378;13.404;2023-01-25T08:33:48;2.40;99.90
18880;DHT22;9572;52.378;13.404;2023-01-25T08:36:16;2.40;99.90
18880;DHT22;9572;52.378;13.404;2023-01-25T08:38:44;2.40;99.90
18880;DHT22;9572;52.378;13.404;2023-01-25T08:41:15;2.40;99.90
18880;DHT22;9572;52.378;13.404;2023-01-25T08:43:42;2.40;99.90
18880;DHT22;9572;52.378;13.404;2023-01-25T08:46:10;2.40;99.90
18880;DHT22;9572;52.378;13.404;2023-01-25T08:48:38;2.30;99.90
18880;DHT22;9572;52.378;13.404;2023-01-25T08:51:07;2.20;99.90
18880;DHT22;9572;52.378;13.404;2023-01-25T08:53:34;2.20;99.90
18880;DHT22;9572;52.378;13.404;2023-01-25T08:56:04;2.10;99.90
18880;DHT22;9572;52.378;13.404;2023-01-25T08:58:34;2.00;99.90
18880;DHT22;9572;52.378;13.404;2023-01-25T09:01:03;2.10;99.90
18880;DHT22;9572;52.378;13.404;2023-01-25T09:03:30;2.10;99.90
18880;DHT22;9572;52.378;13.404;2023-01-25T09:05:57;2.10;99.90
18880;DHT22;9572;52.378;13.404;2023-01-25T09:08:24;2.10;99.90
18880;DHT22;9572;52.378;13.404;2023-01-25T09:10:51;2.10;99.90
18880;DHT22;9572;52.378;13.404;2023-01-25T09:13:18;2.10;99.90
18880;DHT22;9572;52.378;13.404;2023-01-25T09:15:46;2.20;99.90
18880;DHT22;9572;52.378;13.404;2023-01-25T09:18:13;2.20;99.90
18880;DHT22;9572;52.378;13.404;2023-01-25T09:20:40;2.20;99.90
18880;DHT22;9572;52.378;13.404;2023-01-25T09:23:07;2.10;99.90
18880;DHT22;9572;52.378;13.404;2023-01-25T09:25:34;2.10;99.90
18880;DHT22;9572;52.378;13.404;2023-01-25T09:28:01;2.10;99.90
18880;DHT22;9572;52.378;13.404;2023-01-25T09:30:37;2.20;99.90
18880;DHT22;9572;52.378;13.404;2023-01-25T09:33:05;2.30;99.90
18880;DHT22;9572;52.378;13.404;2023-01-25T09:35:32;2.20;99.90
18880;DHT22;9572;52.378;13.404;2023-01-25T09:38:00;2.20;99.90
18880;DHT22;9572;52.378;13.404;2023-01-25T09:40:32;2.10;99.90
18880;DHT22;9572;52.378;13.404;2023-01-25T09:43:08;2.10;99.90
18880;DHT22;9572;52.378;13.404;2023-01-25T09:45:38;2.00;99.90
18880;DHT22;9572;52.378;13.404;2023-01-25T09:48:17;2.00;99.90
18880;DHT22;9572;52.378;13.404;2023-01-25T09:51:01;1.90;99.90
18880;DHT22;9572;52.378;13.404;2023-01-25T09:53:32;2.00;99.90
18880;DHT22;9572;52.378;13.404;2023-01-25T09:56:03;1.90;99.90
18880;DHT22;9572;52.378;13.404;2023-01-25T09:58:37;2.10;99.90
18880;DHT22;9572;52.378;13.404;2023-01-25T10:01:15;2.20;99.90
18880;DHT22;9572;52.378;13.404;2023-01-25T10:03:51;2.20;99.90
18880;DHT22;9572;52.378;13.404;2023-01-25T10:06:22;2.10;99.90
18880;DHT22;9572;52.378;13.404;2023-01-25T10:08:55;2.00;99.90
18880;DHT22;9572;52.378;13.404;2023-01-25T10:11:26;2.20;99.90
18880;DHT22;9572;52.378;13.404;2023-01-25T10:13:54;2.20;99.90
18880;DHT22;9572;52.378;13.404;2023-01-25T10:16:25;2.20;99.90
18880;DHT22;9572;52.378;13.404;2023-01-25T10:19:04;2.10;99.90
18880;DHT22;9572;52.378;13.404;2023-01-25T10:21:36;2.10;99.90
18880;DHT22;9572;52.378;13.404;2023-01-25T10:24:52;2.10;99.90
18880;DHT22;9572;52.378;13.404;2023-01-25T10:27:30;2.20;99.90
18880;DHT22;9572;52.378;13.404;2023-01-25T10:30:01;2.30;99.90
18880;DHT22;9572;52.378;13.404;2023-01-25T10:32:29;2.20;99.90
18880;DHT22;9572;52.378;13.404;2023-01-25T10:35:17;2.30;99.90
18880;DHT22;9572;52.378;13.404;2023-01-25T10:37:45;2.10;99.90
18880;DHT22;9572;52.378;13.404;2023-01-25T10:40:14;2.00;99.90
18880;DHT22;9572;52.378;13.404;2023-01-25T10:42:47;2.20;99.90
18880;DHT22;9572;52.378;13.404;2023-01-25T10:45:17;2.10;99.90
18880;DHT22;9572;52.378;13.404;2023-01-25T10:47:47;2.20;99.90
18880;DHT22;9572;52.378;13.404;2023-01-25T10:50:47;2.30;99.90
18880;DHT22;9572;52.378;13.404;2023-01-25T10:53:31;2.20;99.90
18880;DHT22;9572;52.378;13.404;2023-01-25T10:56:13;2.30;99.90
18880;DHT22;9572;52.378;13.404;2023-01-25T10:58:45;2.20;99.90
18880;DHT22;9572;52.378;13.404;2023-01-25T11:01:24;2.20;99.90
18880;DHT22;9572;52.378;13.404;2023-01-25T11:03:52;2.30;99.90
18880;DHT22;9572;52.378;13.404;2023-01-25T11:06:31;2.30;99.90
18880;DHT22;9572;52.378;13.404;2023-01-25T11:08:58;2.30;99.90
18880;DHT22;9572;52.378;13.404;2023-01-25T11:11:35;2.30;99.90
18880;DHT22;9572;52.378;13.404;2023-01-25T11:14:14;2.50;99.90
18880;DHT22;9572;52.378;13.404;2023-01-25T11:16:44;2.40;99.90
18880;DHT22;9572;52.378;13.404;2023-01-25T11:19:25;2.30;99.90
18880;DHT22;9572;52.378;13.404;2023-01-25T11:21:55;2.30;99.90
18880;DHT22;9572;52.378;13.404;2023-01-25T11:24:25;2.20;99.90
18880;DHT22;9572;52.378;13.404;2023-01-25T11:27:12;2.10;99.90
18880;DHT22;9572;52.378;13.404;2023-01-25T11:29:39;2.20;99.90
18880;DHT22;9572;52.378;13.404;2023-01-25T11:32:15;2.20;99.90
18880;DHT22;9572;52.378;13.404;2023-01-25T11:34:45;2.20;99.90
18880;DHT22;9572;52.378;13.404;2023-01-25T11:37:40;2.10;99.90
18880;DHT22;9572;52.378;13.404;2023-01-25T11:40:14;2.20;99.90
18880;DHT22;9572;52.378;13.404;2023-01-25T11:42:54;2.10;99.90
18880;DHT22;9572;52.378;13.404;2023-01-25T11:45:52;2.10;99.90
18880;DHT22;9572;52.378;13.404;2023-01-25T11:51:24;2.10;99.90
18880;DHT22;9572;52.378;13.404;2023-01-25T11:54:14;2.20;99.90
18880;DHT22;9572;52.378;13.404;2023-01-25T11:56:52;2.20;99.90
18880;DHT22;9572;52.378;13.404;2023-01-25T11:59:31;2.10;99.90
18880;DHT22;9572;52.378;13.404;2023-01-25T12:02:38;2.20;99.90
18880;DHT22;9572;52.378;13.404;2023-01-25T12:05:26;2.20;99.90
18880;DHT22;9572;52.378;13.404;2023-01-25T12:08:03;2.10;99.90
18880;DHT22;9572;52.378;13.404;2023-01-25T12:10:39;2.10;99.90
18880;DHT22;9572;52.378;13.404;2023-01-25T12:13:17;2.10;99.90
18880;DHT22;9572;52.378;13.404;2023-01-25T12:15:59;2.20;99.90
18880;DHT22;9572;52.378;13.404;2023-01-25T12:18:49;2.20;99.90
18880;DHT22;9572;52.378;13.404;2023-01-25T12:21:32;2.10;99.90
18880;DHT22;9572;52.378;13.404;2023-01-25T12:24:20;2.20;99.90
18880;DHT22;9572;52.378;13.404;2023-01-25T12:26:59;2.10;99.90
18880;DHT22;9572;52.378;13.404;2023-01-25T12:29:34;2.00;99.90
18880;DHT22;9572;52.378;13.404;2023-01-25T12:32:07;2.00;99.90
18880;DHT22;9572;52.378;13.404;2023-01-25T12:34:37;2.10;99.90
18880;DHT22;9572;52.378;13.404;2023-01-25T12:37:12;2.20;99.90
18880;DHT22;9572;52.378;13.404;2023-01-25T12:39:45;2.20;99.90
18880;DHT22;9572;52.378;13.404;2023-01-25T12:42:17;2.10;99.90
18880;DHT22;9572;52.378;13.404;2023-01-25T12:44:48;2.10;99.90
18880;DHT22;9572;52.378;13.404;2023-01-25T12:47:21;2.00;99.90
18880;DHT22;9572;52.378;13.404;2023-01-25T12:49:53;2.10;99.90
18880;DHT22;9572;52.378;13.404;2023-01-25T12:52:26;2.10;99.90
18880;DHT22;9572;52.378;13.404;2023-01-25T12:54:58;2.00;99.90
18880;DHT22;9572;52.378;13.404;2023-01-25T12:57:34;1.90;99.90
18880;DHT22;9572;52.378;13.404;2023-01-25T13:00:06;1.90;99.90
18880;DHT22;9572;52.378;13.404;2023-01-25T13:02:49;2.00;99.90
18880;DHT22;9572;52.378;13.404;2023-01-25T13:05:26;2.00;99.90
18880;DHT22;9572;52.378;13.404;2023-01-25T13:08:03;2.10;99.90
18880;DHT22;9572;52.378;13.404;2023-01-25T13:10:34;2.10;99.90
18880;DHT22;9572;52.378;13.404;2023-01-25T13:13:20;2.10;99.90
18880;DHT22;9572;52.378;13.404;2023-01-25T13:15:47;2.10;99.90
18880;DHT22;9572;52.378;13.404;2023-01-25T13:18:36;2.20;99.90
18880;DHT22;9572;52.378;13.404;2023-01-25T13:21:09;2.20;99.90
18880;DHT22;9572;52.378;13.404;2023-01-25T13:23:38;2.00;99.90
18880;DHT22;9572;52.378;13.404;2023-01-25T13:26:44;2.00;99.90
18880;DHT22;9572;52.378;13.404;2023-01-25T13:35:40;2.20;99.90
18880;DHT22;9572;52.378;13.404;2023-01-25T13:38:29;2.20;99.90
18880;DHT22;9572;52.378;13.404;2023-01-25T13:41:08;2.20;99.90
18880;DHT22;9572;52.378;13.404;2023-01-25T13:43:39;2.30;99.90
18880;DHT22;9572;52.378;13.404;2023-01-25T13:46:08;2.50;99.90
18880;DHT22;9572;52.378;13.404;2023-01-25T13:48:44;2.30;99.90
18880;DHT22;9572;52.378;13.404;2023-01-25T13:51:15;2.20;99.90
18880;DHT22;9572;52.378;13.404;2023-01-25T13:53:54;2.30;99.90
18880;DHT22;9572;52.378;13.404;2023-01-25T13:56:27;2.10;99.90
18880;DHT22;9572;52.378;13.404;2023-01-25T13:58:54;2.10;99.90
18880;DHT22;9572;52.378;13.404;2023-01-25T14:01:21;2.10;99.90
18880;DHT22;9572;52.378;13.404;2023-01-25T14:03:49;2.20;99.90
18880;DHT22;9572;52.378;13.404;2023-01-25T14:06:21;2.10;99.90
18880;DHT22;9572;52.378;13.404;2023-01-25T14:08:50;2.10;99.90
18880;DHT22;9572;52.378;13.404;2023-01-25T14:11:20;2.00;99.90
18880;DHT22;9572;52.378;13.404;2023-01-25T14:13:59;2.10;99.90
18880;DHT22;9572;52.378;13.404;2023-01-25T14:16:27;2.00;99.90
18880;DHT22;9572;52.378;13.404;2023-01-25T14:18:55;1.90;99.90
18880;DHT22;9572;52.378;13.404;2023-01-25T14:21:24;1.80;99.90
18880;DHT22;9572;52.378;13.404;2023-01-25T14:23:51;2.00;99.90
18880;DHT22;9572;52.378;13.404;2023-01-25T14:26:23;2.00;99.90
18880;DHT22;9572;52.378;13.404;2023-01-25T14:28:52;2.00;99.90
18880;DHT22;9572;52.378;13.404;2023-01-25T14:31:22;2.00;99.90
18880;DHT22;9572;52.378;13.404;2023-01-25T14:33:50;1.80;99.90
18880;DHT22;9572;52.378;13.404;2023-01-25T14:36:26;1.80;99.90
18880;DHT22;9572;52.378;13.404;2023-01-25T14:38:53;1.80;99.90
18880;DHT22;9572;52.378;13.404;2023-01-25T14:41:24;1.80;99.90
18880;DHT22;9572;52.378;13.404;2023-01-25T14:43:54;1.90;99.90
18880;DHT22;9572;52.378;13.404;2023-01-25T14:46:24;1.80;99.90
18880;DHT22;9572;52.378;13.404;2023-01-25T14:49:05;1.90;99.90
18880;DHT22;9572;52.378;13.404;2023-01-25T14:51:39;2.00;99.90
18880;DHT22;9572;52.378;13.404;2023-01-25T14:54:14;2.00;99.90
18880;DHT22;9572;52.378;13.404;2023-01-25T14:56:42;2.10;99.90
18880;DHT22;9572;52.378;13.404;2023-01-25T14:59:30;2.10;99.90
18880;DHT22;9572;52.378;13.404;2023-01-25T15:02:00;2.00;99.90
18880;DHT22;9572;52.378;13.404;2023-01-25T15:04:28;2.00;99.90
18880;DHT22;9572;52.378;13.404;2023-01-25T15:06:57;2.00;99.90
18880;DHT22;9572;52.378;13.404;2023-01-25T15:09:32;1.90;99.90
18880;DHT22;9572;52.378;13.404;2023-01-25T15:12:00;1.90;99.90
18880;DHT22;9572;52.378;13.404;2023-01-25T15:14:27;2.10;99.90
18880;DHT22;9572;52.378;13.404;2023-01-25T15:16:54;2.00;99.90
18880;DHT22;9572;52.378;13.404;2023-01-25T15:19:23;2.00;99.90
18880;DHT22;9572;52.378;13.404;2023-01-25T15:21:52;2.00;99.90
18880;DHT22;9572;52.378;13.404;2023-01-25T15:24:20;1.90;99.90
18880;DHT22;9572;52.378;13.404;2023-01-25T15:26:49;1.90;99.90
18880;DHT22;9572;52.378;13.404;2023-01-25T15:29:18;2.00;99.90
18880;DHT22;9572;52.378;13.404;2023-01-25T15:31:47;1.90;99.90
18880;DHT22;9572;52.378;13.404;2023-01-25T15:34:16;1.80;99.90
18880;DHT22;9572;52.378;13.404;2023-01-25T15:36:43;1.90;99.90
18880;DHT22;9572;52.378;13.404;2023-01-25T15:39:12;2.00;99.90
18880;DHT22;9572;52.378;13.404;2023-01-25T15:41:41;2.00;99.90
18880;DHT22;9572;52.378;13.404;2023-01-25T15:44:08;2.00;99.90
18880;DHT22;9572;52.378;13.404;2023-01-25T15:46:37;2.00;99.90
18880;DHT22;9572;52.378;13.404;2023-01-25T15:49:06;1.90;99.90
18880;DHT22;9572;52.378;13.404;2023-01-25T15:51:33;1.90;99.90
18880;DHT22;9572;52.378;13.404;2023-01-25T15:54:00;1.90;99.90
18880;DHT22;9572;52.378;13.404;2023-01-25T15:56:29;1.80;99.90
18880;DHT22;9572;52.378;13.404;2023-01-25T15:58:59;1.80;99.90
18880;DHT22;9572;52.378;13.404;2023-01-25T16:01:27;1.80;99.90
18880;DHT22;9572;52.378;13.404;2023-01-25T16:03:55;1.70;99.90
18880;DHT22;9572;52.378;13.404;2023-01-25T16:06:31;1.70;99.90
18880;DHT22;9572;52.378;13.404;2023-01-25T16:08:59;1.70;99.90
18880;DHT22;9572;52.378;13.404;2023-01-25T16:11:27;1.70;99.90
18880;DHT22;9572;52.378;13.404;2023-01-25T16:13:54;1.70;99.90